Terminal Aerodrome Forecast
Issued by NWS Corpus Christi, TX

Home | Current Version | Previous Version | Text Only | Print | Product List | Glossary On
Versions: 1 2 3 4 5 6 7 8 9 10 11 12 13 14 15 16 17 18
610
FTUS44 KCRP 202340
TAFVCT
TAF
KVCT 202340Z 2100/2124 17015G23KT 6SM -SHRA VCTS FEW025CB SCT040
      BKN100
      TEMPO 2100/2102 5SM -TSRA BKN025CB
     FM210200 14013KT P6SM OVC008
     FM210800 14009KT 3SM SHRA BR VCTS BKN008 OVC012CB
     FM211200 09008KT 3SM BR VCSH BKN006
     FM211700 01011G15KT 5SM BR VCTS BKN009 OVC015CB=

USA.gov is the U.S. government's official web portal to all federal, state and local government web resources and services.